sensor_id;sensor_type;location;lat;lon;timestamp;pressure;altitude;pressure_sealevel;temperature;humidity
54546;BME280;40444;45.184;9.850;2023-05-25T00:00:00;100810.03;;;18.26;100.00
54546;BME280;40444;45.184;9.850;2023-05-25T00:02:32;100807.97;;;18.28;100.00
54546;BME280;40444;45.184;9.850;2023-05-25T00:05:01;100816.59;;;18.32;100.00
54546;BME280;40444;45.184;9.850;2023-05-25T00:07:29;100816.41;;;18.33;100.00
54546;BME280;40444;45.184;9.850;2023-05-25T00:09:57;100818.09;;;18.34;100.00
54546;BME280;40444;45.184;9.850;2023-05-25T00:12:25;100815.38;;;18.34;100.00
54546;BME280;40444;45.184;9.850;2023-05-25T00:14:54;100825.03;;;18.37;100.00
54546;BME280;40444;45.184;9.850;2023-05-25T00:17:22;100824.19;;;18.36;100.00
54546;BME280;40444;45.184;9.850;2023-05-25T00:19:51;100821.28;;;18.38;100.00
54546;BME280;40444;45.184;9.850;2023-05-25T00:22:19;100821.28;;;18.38;100.00
54546;BME280;40444;45.184;9.850;2023-05-25T00:24:48;100826.72;;;18.38;100.00
54546;BME280;40444;45.184;9.850;2023-05-25T00:27:16;100825.88;;;18.37;100.00
54546;BME280;40444;45.184;9.850;2023-05-25T00:29:45;100822.97;;;18.39;100.00
54546;BME280;40444;45.184;9.850;2023-05-25T00:32:13;100824.00;;;18.38;100.00
54546;BME280;40444;45.184;9.850;2023-05-25T00:34:41;100811.28;;;18.38;100.00
54546;BME280;40444;45.184;9.850;2023-05-25T00:37:10;100819.59;;;18.37;100.00
54546;BME280;40444;45.184;9.850;2023-05-25T00:39:38;100810.34;;;18.31;100.00
54546;BME280;40444;45.184;9.850;2023-05-25T00:42:07;100813.41;;;18.28;100.00
54546;BME280;40444;45.184;9.850;2023-05-25T00:44:36;100809.38;;;18.24;100.00
54546;BME280;40444;45.184;9.850;2023-05-25T00:47:04;100814.50;;;18.19;100.00
54546;BME280;40444;45.184;9.850;2023-05-25T00:49:34;100808.78;;;18.14;100.00
54546;BME280;40444;45.184;9.850;2023-05-25T00:52:03;100814.56;;;18.11;100.00
54546;BME280;40444;45.184;9.850;2023-05-25T00:54:32;100804.56;;;18.11;100.00
54546;BME280;40444;45.184;9.850;2023-05-25T00:57:05;100805.03;;;18.15;100.00
54546;BME280;40444;45.184;9.850;2023-05-25T00:59:39;100807.41;;;18.18;100.00
54546;BME280;40444;45.184;9.850;2023-05-25T01:02:12;100801.59;;;18.21;100.00
54546;BME280;40444;45.184;9.850;2023-05-25T01:04:53;100812.06;;;18.24;100.00
54546;BME280;40444;45.184;9.850;2023-05-25T01:07:22;100818.19;;;18.26;100.00
54546;BME280;40444;45.184;9.850;2023-05-25T01:10:05;100817.16;;;18.27;100.00
54546;BME280;40444;45.184;9.850;2023-05-25T01:12:37;100814.44;;;18.27;100.00
54546;BME280;40444;45.184;9.850;2023-05-25T01:15:08;100812.56;;;18.28;100.00
54546;BME280;40444;45.184;9.850;2023-05-25T01:17:36;100813.41;;;18.28;100.00
54546;BME280;40444;45.184;9.850;2023-05-25T01:20:05;100819.66;;;18.29;100.00
54546;BME280;40444;45.184;9.850;2023-05-25T01:22:57;100815.28;;;18.28;100.00
54546;BME280;40444;45.184;9.850;2023-05-25T01:25:31;100824.25;;;18.28;100.00
54546;BME280;40444;45.184;9.850;2023-05-25T01:28:13;100831.91;;;18.25;100.00
54546;BME280;40444;45.184;9.850;2023-05-25T01:30:47;100831.25;;;18.23;100.00
54546;BME280;40444;45.184;9.850;2023-05-25T01:33:17;100826.88;;;18.22;100.00
54546;BME280;40444;45.184;9.850;2023-05-25T01:35:47;100827.88;;;18.21;100.00
54546;BME280;40444;45.184;9.850;2023-05-25T01:38:18;100824.31;;;18.20;100.00
54546;BME280;40444;45.184;9.850;2023-05-25T01:40:46;100833.28;;;18.21;100.00
54546;BME280;40444;45.184;9.850;2023-05-25T01:43:15;100830.56;;;18.21;100.00
54546;BME280;40444;45.184;9.850;2023-05-25T01:45:43;100839.56;;;18.21;100.00
54546;BME280;40444;45.184;9.850;2023-05-25T01:48:27;100843.66;;;18.17;100.00
54546;BME280;40444;45.184;9.850;2023-05-25T01:51:09;100835.22;;;18.12;100.00
54546;BME280;40444;45.184;9.850;2023-05-25T01:53:46;100845.41;;;18.10;100.00
54546;BME280;40444;45.184;9.850;2023-05-25T01:56:16;100843.06;;;18.07;100.00
54546;BME280;40444;45.184;9.850;2023-05-25T01:58:46;100844.94;;;18.06;100.00
54546;BME280;40444;45.184;9.850;2023-05-25T02:01:16;100843.06;;;18.07;100.00
54546;BME280;40444;45.184;9.850;2023-05-25T02:03:46;100828.47;;;18.08;100.00
54546;BME280;40444;45.184;9.850;2023-05-25T02:06:18;100828.47;;;18.08;100.00
54546;BME280;40444;45.184;9.850;2023-05-25T02:08:46;100848.31;;;18.08;100.00
54546;BME280;40444;45.184;9.850;2023-05-25T02:11:15;100851.03;;;18.08;100.00
54546;BME280;40444;45.184;9.850;2023-05-25T02:13:45;100843.72;;;18.09;100.00
54546;BME280;40444;45.184;9.850;2023-05-25T02:16:14;100844.56;;;18.09;100.00
54546;BME280;40444;45.184;9.850;2023-05-25T02:18:44;100842.91;;;18.08;100.00
54546;BME280;40444;45.184;9.850;2023-05-25T02:21:13;100839.31;;;18.08;100.00
54546;BME280;40444;45.184;9.850;2023-05-25T02:23:42;100846.59;;;18.07;100.00
54546;BME280;40444;45.184;9.850;2023-05-25T02:26:10;100843.06;;;18.07;100.00
54546;BME280;40444;45.184;9.850;2023-05-25T02:28:38;100839.50;;;18.06;100.00
54546;BME280;40444;45.184;9.850;2023-05-25T02:31:07;100840.72;;;18.04;100.00
54546;BME280;40444;45.184;9.850;2023-05-25T02:33:35;100841.56;;;18.04;100.00
54546;BME280;40444;45.184;9.850;2023-05-25T02:36:04;100839.00;;;18.03;100.00
54546;BME280;40444;45.184;9.850;2023-05-25T02:38:32;100850.06;;;18.01;100.00
54546;BME280;40444;45.184;9.850;2023-05-25T02:41:00;100840.41;;;17.99;100.00
54546;BME280;40444;45.184;9.850;2023-05-25T02:43:29;100847.03;;;17.96;100.00
54546;BME280;40444;45.184;9.850;2023-05-25T02:45:59;100850.09;;;17.93;100.00
54546;BME280;40444;45.184;9.850;2023-05-25T02:48:27;100854.03;;;17.90;100.00
54546;BME280;40444;45.184;9.850;2023-05-25T02:50:55;100850.63;;;17.88;100.00
54546;BME280;40444;45.184;9.850;2023-05-25T02:53:24;100862.50;;;17.87;100.00
54546;BME280;40444;45.184;9.850;2023-05-25T02:55:54;100859.13;;;17.85;100.00
54546;BME280;40444;45.184;9.850;2023-05-25T02:58:28;100869.31;;;17.83;100.00
54546;BME280;40444;45.184;9.850;2023-05-25T03:01:25;100871.19;;;17.83;100.00
54546;BME280;40444;45.184;9.850;2023-05-25T03:03:58;100874.72;;;17.83;100.00
54546;BME280;40444;45.184;9.850;2023-05-25T03:06:30;100872.22;;;17.82;100.00
54546;BME280;40444;45.184;9.850;2023-05-25T03:09:06;100871.34;;;17.81;100.00
54546;BME280;40444;45.184;9.850;2023-05-25T03:11:38;100871.34;;;17.81;100.00
54546;BME280;40444;45.184;9.850;2023-05-25T03:14:10;100875.91;;;17.81;100.00
54546;BME280;40444;45.184;9.850;2023-05-25T03:16:43;100880.34;;;17.82;100.00
54546;BME280;40444;45.184;9.850;2023-05-25T03:19:12;100882.19;;;17.81;100.00
54546;BME280;40444;45.184;9.850;2023-05-25T03:21:40;100883.06;;;17.82;100.00
54546;BME280;40444;45.184;9.850;2023-05-25T03:24:08;100884.88;;;17.81;100.00
54546;BME280;40444;45.184;9.850;2023-05-25T03:26:37;100886.59;;;17.82;100.00
54546;BME280;40444;45.184;9.850;2023-05-25T03:29:06;100892.69;;;17.84;100.00
54546;BME280;40444;45.184;9.850;2023-05-25T03:31:37;100890.31;;;17.81;100.00
54546;BME280;40444;45.184;9.850;2023-05-25T03:34:06;100893.03;;;17.81;100.00
54546;BME280;40444;45.184;9.850;2023-05-25T03:36:37;100892.38;;;17.79;100.00
54546;BME280;40444;45.184;9.850;2023-05-25T03:39:06;100899.66;;;17.79;100.00
54546;BME280;40444;45.184;9.850;2023-05-25T03:41:37;100901.88;;;17.75;100.00
54546;BME280;40444;45.184;9.850;2023-05-25T03:44:05;100905.91;;;17.71;100.00
54546;BME280;40444;45.184;9.850;2023-05-25T03:46:34;100908.81;;;17.69;100.00
54546;BME280;40444;45.184;9.850;2023-05-25T03:49:03;100915.25;;;17.68;100.00
54546;BME280;40444;45.184;9.850;2023-05-25T03:51:31;100915.25;;;17.68;100.00
